CZ-0002 weather

Public forecast

Using degrees Celsius for public forecast. Weather courtesy of forecast.io.

Closest aviation weather report (METAR) to Hospital Heliport

Closest report is Čáslav Air Base, 42.3 nm (78.4 km) NE. Retrieved 2020/08/09 14:00 UTC (21 minutes ago):

LKCV 091400Z VRB04KT CAVOK 31/17 Q1017 NOSIG

Closest aviation forecast (TAF) to Hospital Heliport

Closest forecast is Čáslav Air Base, 42.3 nm (78.4 km) NE. Retrieved 2020/08/09 12:07 UTC (2 hours ago):

TAF LKCV 091100Z 0912/1012 VRB02KT CAVOK PROB30 TEMPO 0912/0917 06007KT SCT045TCU BECMG 1009/1011 08008KT TEMPO 1010/1012 SCT035TCU